sensor_id;sensor_type;location;lat;lon;timestamp;pressure;altitude;pressure_sealevel;temperature;humidity
66479;BME280;53294;47.912;13.526;2022-09-09T00:01:31;96041.00;;;14.62;67.25
66479;BME280;53294;47.912;13.526;2022-09-09T00:04:12;96042.91;;;14.70;67.11
66479;BME280;53294;47.912;13.526;2022-09-09T00:09:29;96033.00;;;14.74;66.50
66479;BME280;53294;47.912;13.526;2022-09-09T00:17:26;96032.34;;;14.77;66.65
66479;BME280;53294;47.912;13.526;2022-09-09T00:20:14;96030.53;;;14.51;68.08
66479;BME280;53294;47.912;13.526;2022-09-09T00:23:04;96027.00;;;14.60;67.27
66479;BME280;53294;47.912;13.526;2022-09-09T00:25:48;96019.44;;;14.44;67.89
66479;BME280;53294;47.912;13.526;2022-09-09T00:28:20;96013.84;;;14.49;67.90
66479;BME280;53294;47.912;13.526;2022-09-09T00:30:49;96020.97;;;14.63;67.42
66479;BME280;53294;47.912;13.526;2022-09-09T00:33:20;96011.56;;;14.69;67.45
66479;BME280;53294;47.912;13.526;2022-09-09T00:35:55;96003.28;;;14.74;67.04
66479;BME280;53294;47.912;13.526;2022-09-09T00:38:36;96008.03;;;14.77;67.05
66479;BME280;53294;47.912;13.526;2022-09-09T00:41:17;96001.78;;;14.85;66.46
66479;BME280;53294;47.912;13.526;2022-09-09T00:46:50;95991.81;;;14.77;67.19
66479;BME280;53294;47.912;13.526;2022-09-09T00:58:07;96012.28;;;14.48;68.64
66479;BME280;53294;47.912;13.526;2022-09-09T01:00:43;96010.22;;;14.45;68.59
66479;BME280;53294;47.912;13.526;2022-09-09T01:10:59;96012.41;;;14.61;68.10
66479;BME280;53294;47.912;13.526;2022-09-09T01:13:29;96016.69;;;14.62;68.22
66479;BME280;53294;47.912;13.526;2022-09-09T01:16:01;96012.41;;;14.61;68.55
66479;BME280;53294;47.912;13.526;2022-09-09T01:18:49;96005.94;;;14.83;67.29
66479;BME280;53294;47.912;13.526;2022-09-09T01:21:25;96007.94;;;14.65;68.19
66479;BME280;53294;47.912;13.526;2022-09-09T01:24:08;96006.91;;;14.78;67.42
66479;BME280;53294;47.912;13.526;2022-09-09T01:26:48;96000.34;;;14.88;66.62
66479;BME280;53294;47.912;13.526;2022-09-09T01:29:18;96006.06;;;14.86;66.69
66479;BME280;53294;47.912;13.526;2022-09-09T01:31:59;96007.34;;;14.89;66.53
66479;BME280;53294;47.912;13.526;2022-09-09T01:34:33;96011.66;;;14.81;66.75
66479;BME280;53294;47.912;13.526;2022-09-09T01:37:05;96003.91;;;14.71;67.55
66479;BME280;53294;47.912;13.526;2022-09-09T01:39:34;95996.75;;;14.75;67.08
66479;BME280;53294;47.912;13.526;2022-09-09T01:42:03;95996.09;;;14.78;66.87
66479;BME280;53294;47.912;13.526;2022-09-09T01:44:33;96002.53;;;14.65;67.83
66479;BME280;53294;47.912;13.526;2022-09-09T01:47:00;96011.13;;;14.49;68.81
66479;BME280;53294;47.912;13.526;2022-09-09T01:49:27;96002.75;;;14.42;69.10
66479;BME280;53294;47.912;13.526;2022-09-09T01:51:55;96002.47;;;14.35;69.44
66479;BME280;53294;47.912;13.526;2022-09-09T01:54:26;95995.13;;;14.44;68.91
66479;BME280;53294;47.912;13.526;2022-09-09T01:57:18;95996.88;;;14.40;69.20
66479;BME280;53294;47.912;13.526;2022-09-09T02:00:06;95984.75;;;14.46;68.82
66479;BME280;53294;47.912;13.526;2022-09-09T02:05:25;95989.50;;;14.58;68.72
66479;BME280;53294;47.912;13.526;2022-09-09T02:08:07;95988.75;;;14.49;69.57
66479;BME280;53294;47.912;13.526;2022-09-09T02:13:21;95992.41;;;14.44;69.51
66479;BME280;53294;47.912;13.526;2022-09-09T02:16:02;95996.22;;;14.43;69.46
66479;BME280;53294;47.912;13.526;2022-09-09T02:18:35;95998.91;;;14.52;69.22
66479;BME280;53294;47.912;13.526;2022-09-09T02:21:05;95998.75;;;14.48;69.58
66479;BME280;53294;47.912;13.526;2022-09-09T02:23:34;95999.03;;;14.55;69.20
66479;BME280;53294;47.912;13.526;2022-09-09T02:26:03;95999.41;;;14.45;69.89
66479;BME280;53294;47.912;13.526;2022-09-09T02:28:32;95993.31;;;14.57;69.45
66479;BME280;53294;47.912;13.526;2022-09-09T02:31:01;95990.91;;;14.64;69.61
66479;BME280;53294;47.912;13.526;2022-09-09T02:33:32;95996.47;;;14.68;69.46
66479;BME280;53294;47.912;13.526;2022-09-09T02:36:01;96004.91;;;14.66;69.30
66479;BME280;53294;47.912;13.526;2022-09-09T02:38:33;96000.56;;;14.74;69.08
66479;BME280;53294;47.912;13.526;2022-09-09T02:41:01;96005.81;;;14.79;68.72
66479;BME280;53294;47.912;13.526;2022-09-09T02:43:35;96007.56;;;14.75;69.25
66479;BME280;53294;47.912;13.526;2022-09-09T02:48:55;96015.97;;;14.35;71.13
66479;BME280;53294;47.912;13.526;2022-09-09T02:54:20;96018.75;;;14.65;69.24
66479;BME280;53294;47.912;13.526;2022-09-09T02:56:52;96022.69;;;14.76;68.57
66479;BME280;53294;47.912;13.526;2022-09-09T02:59:25;96025.38;;;14.76;68.67
66479;BME280;53294;47.912;13.526;2022-09-09T03:01:52;96016.53;;;14.67;69.04
66479;BME280;53294;47.912;13.526;2022-09-09T03:04:19;96016.31;;;14.72;68.95
66479;BME280;53294;47.912;13.526;2022-09-09T03:06:47;96021.41;;;14.74;68.90
66479;BME280;53294;47.912;13.526;2022-09-09T03:09:13;96025.38;;;14.76;68.67
66479;BME280;53294;47.912;13.526;2022-09-09T03:11:40;96009.91;;;14.85;68.32
66479;BME280;53294;47.912;13.526;2022-09-09T03:14:07;96010.06;;;14.80;68.48
66479;BME280;53294;47.912;13.526;2022-09-09T03:16:34;96002.16;;;14.75;68.48
66479;BME280;53294;47.912;13.526;2022-09-09T03:19:01;96006.13;;;14.78;68.57
66479;BME280;53294;47.912;13.526;2022-09-09T03:21:28;96008.78;;;14.86;68.05
66479;BME280;53294;47.912;13.526;2022-09-09T03:23:54;96013.81;;;14.67;69.04
66479;BME280;53294;47.912;13.526;2022-09-09T03:26:21;96011.66;;;14.81;68.74
66479;BME280;53294;47.912;13.526;2022-09-09T03:28:49;96008.94;;;14.90;67.84
66479;BME280;53294;47.912;13.526;2022-09-09T03:31:18;96003.38;;;14.86;67.93
66479;BME280;53294;47.912;13.526;2022-09-09T03:33:46;96009.44;;;14.83;67.94
66479;BME280;53294;47.912;13.526;2022-09-09T03:36:13;96009.72;;;14.90;67.77
66479;BME280;53294;47.912;13.526;2022-09-09T03:38:41;96008.13;;;14.89;67.69
66479;BME280;53294;47.912;13.526;2022-09-09T03:41:07;96004.19;;;14.87;67.81
66479;BME280;53294;47.912;13.526;2022-09-09T03:43:34;96002.06;;;14.93;67.43
66479;BME280;53294;47.912;13.526;2022-09-09T03:46:01;96000.84;;;14.81;67.89
66479;BME280;53294;47.912;13.526;2022-09-09T03:48:28;95994.78;;;14.84;67.68
66479;BME280;53294;47.912;13.526;2022-09-09T03:50:56;95996.84;;;14.87;67.72
66479;BME280;53294;47.912;13.526;2022-09-09T03:53:24;95993.50;;;14.90;67.42
66479;BME280;53294;47.912;13.526;2022-09-09T03:55:53;95991.16;;;14.80;68.16
66479;BME280;53294;47.912;13.526;2022-09-09T03:58:22;95983.69;;;14.77;68.09
66479;BME280;53294;47.912;13.526;2022-09-09T04:00:58;95985.56;;;14.85;67.93
66479;BME280;53294;47.912;13.526;2022-09-09T04:03:25;95985.38;;;14.90;67.59
66479;BME280;53294;47.912;13.526;2022-09-09T04:05:55;95984.72;;;14.94;67.53
66479;BME280;53294;47.912;13.526;2022-09-09T04:08:22;95975.25;;;14.79;68.43
66479;BME280;53294;47.912;13.526;2022-09-09T04:10:52;95980.72;;;14.70;68.85
66479;BME280;53294;47.912;13.526;2022-09-09T04:13:19;95977.88;;;14.66;68.95
66479;BME280;53294;47.912;13.526;2022-09-09T04:15:54;95983.19;;;14.84;68.30
66479;BME280;53294;47.912;13.526;2022-09-09T04:18:21;95990.81;;;14.82;68.24
66479;BME280;53294;47.912;13.526;2022-09-09T04:20:49;95984.09;;;14.88;68.18
66479;BME280;53294;47.912;13.526;2022-09-09T04:23:17;95991.34;;;14.75;68.65
66479;BME280;53294;47.912;13.526;2022-09-09T04:25:49;95990.56;;;14.75;68.86
66479;BME280;53294;47.912;13.526;2022-09-09T04:28:16;95996.66;;;14.93;68.13
66479;BME280;53294;47.912;13.526;2022-09-09T04:30:44;95989.16;;;14.98;67.74
66479;BME280;53294;47.912;13.526;2022-09-09T04:33:12;95996.94;;;15.00;67.75
66479;BME280;53294;47.912;13.526;2022-09-09T04:35:39;96003.13;;;15.00;67.92
66479;BME280;53294;47.912;13.526;2022-09-09T04:38:10;95995.53;;;14.94;68.31
66479;BME280;53294;47.912;13.526;2022-09-09T04:40:36;95995.09;;;14.92;68.70
66479;BME280;53294;47.912;13.526;2022-09-09T04:43:03;96004.38;;;15.03;68.14
66479;BME280;53294;47.912;13.526;2022-09-09T04:45:39;96006.69;;;15.13;67.96
66479;BME280;53294;47.912;13.526;2022-09-09T04:48:08;96005.72;;;15.18;67.72
66479;BME280;53294;47.912;13.526;2022-09-09T04:50:35;95988.03;;;15.20;67.77
66479;BME280;53294;47.912;13.526;2022-09-09T04:53:03;95987.72;;;15.22;67.74
66479;BME280;53294;47.912;13.526;2022-09-09T04:55:31;95999.50;;;15.17;67.97
66479;BME280;53294;47.912;13.526;2022-09-09T04:58:03;96004.97;;;15.08;68.61
66479;BME280;53294;47.912;13.526;2022-09-09T05:00:31;95996.28;;;15.03;68.90
66479;BME280;53294;47.912;13.526;2022-09-09T05:02:57;96002.88;;;15.14;68.16
66479;BME280;53294;47.912;13.526;2022-09-09T05:05:24;96000.78;;;15.20;68.04
66479;BME280;53294;47.912;13.526;2022-09-09T05:07:52;96002.81;;;15.23;68.04
66479;BME280;53294;47.912;13.526;2022-09-09T05:10:18;96001.69;;;15.24;68.13
66479;BME280;53294;47.912;13.526;2022-09-09T05:12:52;95999.19;;;15.19;68.59
66479;BME280;53294;47.912;13.526;2022-09-09T05:15:19;95999.78;;;15.24;68.60
66479;BME280;53294;47.912;13.526;2022-09-09T05:17:47;95992.59;;;15.29;68.50
66479;BME280;53294;47.912;13.526;2022-09-09T05:20:14;95999.88;;;15.37;68.17
66479;BME280;53294;47.912;13.526;2022-09-09T05:22:42;95995.16;;;15.46;68.20
66479;BME280;53294;47.912;13.526;2022-09-09T05:25:10;95997.06;;;15.46;68.46
66479;BME280;53294;47.912;13.526;2022-09-09T05:27:36;96002.09;;;15.35;68.99
66479;BME280;53294;47.912;13.526;2022-09-09T05:30:04;95995.50;;;15.44;68.78
66479;BME280;53294;47.912;13.526;2022-09-09T05:32:31;95998.13;;;15.53;68.76
66479;BME280;53294;47.912;13.526;2022-09-09T05:35:00;95995.03;;;15.64;68.47
66479;BME280;53294;47.912;13.526;2022-09-09T05:37:28;95995.81;;;15.64;68.74
66479;BME280;53294;47.912;13.526;2022-09-09T05:39:56;95989.38;;;15.69;68.65
66479;BME280;53294;47.912;13.526;2022-09-09T05:42:23;95980.44;;;15.77;68.50
66479;BME280;53294;47.912;13.526;2022-09-09T05:44:50;95984.38;;;15.79;68.70
66479;BME280;53294;47.912;13.526;2022-09-09T05:47:17;95969.19;;;15.87;68.63
66479;BME280;53294;47.912;13.526;2022-09-09T05:49:43;95964.00;;;15.94;68.33
66479;BME280;53294;47.912;13.526;2022-09-09T05:52:11;95962.41;;;15.93;68.71
66479;BME280;53294;47.912;13.526;2022-09-09T05:54:37;95972.59;;;15.96;68.98
66479;BME280;53294;47.912;13.526;2022-09-09T05:57:04;95971.50;;;16.10;68.48
66479;BME280;53294;47.912;13.526;2022-09-09T05:59:32;95977.69;;;16.10;68.69
66479;BME280;53294;47.912;13.526;2022-09-09T06:01:58;95973.19;;;16.14;68.77
66479;BME280;53294;47.912;13.526;2022-09-09T06:04:25;95967.66;;;16.11;68.70
66479;BME280;53294;47.912;13.526;2022-09-09T06:06:52;95966.97;;;16.14;68.83
66479;BME280;53294;47.912;13.526;2022-09-09T06:09:19;95973.72;;;16.08;69.41
66479;BME280;53294;47.912;13.526;2022-09-09T06:11:45;95972.00;;;15.91;69.55
66479;BME280;53294;47.912;13.526;2022-09-09T06:14:12;95985.13;;;16.01;69.28
66479;BME280;53294;47.912;13.526;2022-09-09T06:16:39;95989.22;;;16.07;70.21
66479;BME280;53294;47.912;13.526;2022-09-09T06:19:08;95986.53;;;16.20;69.93
66479;BME280;53294;47.912;13.526;2022-09-09T06:21:36;95975.94;;;16.27;70.03
66479;BME280;53294;47.912;13.526;2022-09-09T06:24:04;95975.94;;;16.27;70.16
66479;BME280;53294;47.912;13.526;2022-09-09T06:26:38;95986.88;;;16.30;70.58
66479;BME280;53294;47.912;13.526;2022-09-09T06:29:08;95978.19;;;16.49;69.52
66479;BME280;53294;47.912;13.526;2022-09-09T06:31:36;95969.38;;;16.65;68.81
66479;BME280;53294;47.912;13.526;2022-09-09T06:34:07;95973.56;;;16.75;68.64
66479;BME280;53294;47.912;13.526;2022-09-09T06:36:36;95976.41;;;16.66;70.03
66479;BME280;53294;47.912;13.526;2022-09-09T06:39:04;95976.50;;;16.82;69.47
66479;BME280;53294;47.912;13.526;2022-09-09T06:41:35;95982.19;;;16.89;69.41
66479;BME280;53294;47.912;13.526;2022-09-09T06:44:02;95986.03;;;16.88;69.43
66479;BME280;53294;47.912;13.526;2022-09-09T06:46:30;95987.38;;;16.94;68.71
66479;BME280;53294;47.912;13.526;2022-09-09T06:48:59;95983.97;;;16.97;68.62
66479;BME280;53294;47.912;13.526;2022-09-09T06:51:29;95983.97;;;16.85;68.83
66479;BME280;53294;47.912;13.526;2022-09-09T06:53:58;95990.53;;;16.96;68.63
66479;BME280;53294;47.912;13.526;2022-09-09T06:56:34;95994.59;;;17.02;67.78
66479;BME280;53294;47.912;13.526;2022-09-09T06:59:04;95991.22;;;16.93;68.52
66479;BME280;53294;47.912;13.526;2022-09-09T07:01:33;95985.00;;;16.93;68.26
66479;BME280;53294;47.912;13.526;2022-09-09T07:04:00;95985.09;;;16.96;68.05
66479;BME280;53294;47.912;13.526;2022-09-09T07:06:29;95979.91;;;17.03;68.09
66479;BME280;53294;47.912;13.526;2022-09-09T07:08:58;95985.75;;;17.18;67.87
66479;BME280;53294;47.912;13.526;2022-09-09T07:11:31;95964.84;;;17.18;67.94
66479;BME280;53294;47.912;13.526;2022-09-09T07:13:59;95978.50;;;17.22;67.47
66479;BME280;53294;47.912;13.526;2022-09-09T07:16:27;95974.53;;;17.32;67.19
66479;BME280;53294;47.912;13.526;2022-09-09T07:18:54;95979.41;;;17.26;67.49
66479;BME280;53294;47.912;13.526;2022-09-09T07:21:28;95990.75;;;16.91;69.20
66479;BME280;53294;47.912;13.526;2022-09-09T07:23:56;96009.47;;;16.59;70.93
66479;BME280;53294;47.912;13.526;2022-09-09T07:26:25;96007.44;;;16.68;70.60
66479;BME280;53294;47.912;13.526;2022-09-09T07:28:52;96014.47;;;16.69;70.03
66479;BME280;53294;47.912;13.526;2022-09-09T07:31:31;96004.53;;;16.74;69.84
66479;BME280;53294;47.912;13.526;2022-09-09T07:33:59;96005.91;;;16.92;68.92
66479;BME280;53294;47.912;13.526;2022-09-09T07:36:36;96010.19;;;17.05;68.53
66479;BME280;53294;47.912;13.526;2022-09-09T07:39:07;96012.00;;;17.14;68.50
66479;BME280;53294;47.912;13.526;2022-09-09T07:41:37;96023.56;;;16.86;69.55
66479;BME280;53294;47.912;13.526;2022-09-09T07:44:09;96016.81;;;16.46;71.94
66479;BME280;53294;47.912;13.526;2022-09-09T07:46:37;96015.16;;;16.66;71.26
66479;BME280;53294;47.912;13.526;2022-09-09T07:49:06;96021.16;;;16.84;70.80
66479;BME280;53294;47.912;13.526;2022-09-09T07:51:36;96021.84;;;17.06;69.63
66479;BME280;53294;47.912;13.526;2022-09-09T07:54:05;96027.50;;;16.89;71.27
66479;BME280;53294;47.912;13.526;2022-09-09T07:56:33;96020.13;;;16.52;72.34
66479;BME280;53294;47.912;13.526;2022-09-09T07:59:00;96029.00;;;16.40;73.47
66479;BME280;53294;47.912;13.526;2022-09-09T08:01:32;96029.13;;;16.31;72.22
66479;BME280;53294;47.912;13.526;2022-09-09T08:04:05;96032.41;;;16.49;72.52
66479;BME280;53294;47.912;13.526;2022-09-09T08:06:41;96030.31;;;16.80;71.00
66479;BME280;53294;47.912;13.526;2022-09-09T08:09:09;96032.81;;;17.10;70.32
66479;BME280;53294;47.912;13.526;2022-09-09T08:11:36;96022.84;;;17.14;70.13
66479;BME280;53294;47.912;13.526;2022-09-09T08:14:06;96032.09;;;17.25;69.57
66479;BME280;53294;47.912;13.526;2022-09-09T08:16:36;96033.44;;;17.31;69.26
66479;BME280;53294;47.912;13.526;2022-09-09T08:19:04;96037.69;;;17.45;69.25
66479;BME280;53294;47.912;13.526;2022-09-09T08:21:35;96039.72;;;17.48;69.46
66479;BME280;53294;47.912;13.526;2022-09-09T08:24:04;96045.88;;;17.32;69.68
66479;BME280;53294;47.912;13.526;2022-09-09T08:26:34;96049.63;;;17.28;70.02
66479;BME280;53294;47.912;13.526;2022-09-09T08:29:03;96055.16;;;17.31;69.70
66479;BME280;53294;47.912;13.526;2022-09-09T08:31:53;96063.31;;;17.31;69.47
66479;BME280;53294;47.912;13.526;2022-09-09T08:34:21;96064.16;;;17.48;69.38
66479;BME280;53294;47.912;13.526;2022-09-09T08:36:49;96064.13;;;17.60;69.07
66479;BME280;53294;47.912;13.526;2022-09-09T08:39:18;96063.69;;;17.58;68.18
66479;BME280;53294;47.912;13.526;2022-09-09T08:50:30;96073.44;;;17.59;69.02
66479;BME280;53294;47.912;13.526;2022-09-09T08:53:22;96066.09;;;17.88;68.50
66479;BME280;53294;47.912;13.526;2022-09-09T08:55:56;96063.72;;;17.86;68.62
66479;BME280;53294;47.912;13.526;2022-09-09T08:58:32;96060.91;;;17.83;68.81
66479;BME280;53294;47.912;13.526;2022-09-09T09:01:15;96061.50;;;18.17;68.35
66479;BME280;53294;47.912;13.526;2022-09-09T09:12:15;96057.41;;;17.94;69.21
66479;BME280;53294;47.912;13.526;2022-09-09T09:14:43;96045.69;;;18.06;68.80
66479;BME280;53294;47.912;13.526;2022-09-09T09:17:14;96061.34;;;17.85;69.95
66479;BME280;53294;47.912;13.526;2022-09-09T09:19:43;96063.47;;;17.51;69.97
66479;BME280;53294;47.912;13.526;2022-09-09T09:22:22;96062.19;;;17.20;72.42
66479;BME280;53294;47.912;13.526;2022-09-09T09:24:56;96073.94;;;17.12;72.91
66479;BME280;53294;47.912;13.526;2022-09-09T09:27:35;96062.47;;;17.43;71.39
66479;BME280;53294;47.912;13.526;2022-09-09T09:30:17;96066.78;;;17.85;69.47
66479;BME280;53294;47.912;13.526;2022-09-09T09:35:28;96065.56;;;17.94;69.07
66479;BME280;53294;47.912;13.526;2022-09-09T09:37:54;96063.75;;;18.15;68.96
66479;BME280;53294;47.912;13.526;2022-09-09T09:41:07;96062.66;;;18.32;68.05
66479;BME280;53294;47.912;13.526;2022-09-09T09:43:36;96064.72;;;18.22;67.88
66479;BME280;53294;47.912;13.526;2022-09-09T09:46:04;96069.72;;;18.20;68.17
66479;BME280;53294;47.912;13.526;2022-09-09T09:48:43;96068.69;;;18.25;68.01
66479;BME280;53294;47.912;13.526;2022-09-09T09:51:12;96074.75;;;18.34;68.07
66479;BME280;53294;47.912;13.526;2022-09-09T09:53:42;96073.72;;;18.39;67.84
66479;BME280;53294;47.912;13.526;2022-09-09T09:56:13;96071.16;;;18.30;68.38
66479;BME280;53294;47.912;13.526;2022-09-09T10:01:39;96069.69;;;18.48;67.82
66479;BME280;53294;47.912;13.526;2022-09-09T10:04:20;96070.59;;;18.69;67.14
66479;BME280;53294;47.912;13.526;2022-09-09T10:06:50;96065.16;;;18.69;66.47
66479;BME280;53294;47.912;13.526;2022-09-09T10:09:30;96069.09;;;18.71;66.63
66479;BME280;53294;47.912;13.526;2022-09-09T10:14:50;96069.19;;;18.75;66.97
66479;BME280;53294;47.912;13.526;2022-09-09T10:20:18;96063.66;;;18.71;67.52
66479;BME280;53294;47.912;13.526;2022-09-09T10:22:52;96073.91;;;18.46;68.09
66479;BME280;53294;47.912;13.526;2022-09-09T10:28:24;96064.16;;;18.29;66.64
66479;BME280;53294;47.912;13.526;2022-09-09T10:31:09;96059.69;;;18.37;66.82
66479;BME280;53294;47.912;13.526;2022-09-09T10:34:00;96052.50;;;18.00;68.80
66479;BME280;53294;47.912;13.526;2022-09-09T10:36:32;96056.75;;;18.14;68.96
66479;BME280;53294;47.912;13.526;2022-09-09T10:39:04;96057.06;;;17.96;68.88
66479;BME280;53294;47.912;13.526;2022-09-09T10:42:06;96054.84;;;18.30;68.38
66479;BME280;53294;47.912;13.526;2022-09-09T10:56:23;96056.13;;;18.80;66.94
66479;BME280;53294;47.912;13.526;2022-09-09T10:58:56;96049.31;;;18.87;66.96
66479;BME280;53294;47.912;13.526;2022-09-09T11:01:30;96047.19;;;18.96;67.28
66479;BME280;53294;47.912;13.526;2022-09-09T11:07:25;96056.22;;;19.00;67.21
66479;BME280;53294;47.912;13.526;2022-09-09T11:09:59;96064.13;;;19.05;66.93
66479;BME280;53294;47.912;13.526;2022-09-09T11:12:29;96061.94;;;18.95;66.45
66479;BME280;53294;47.912;13.526;2022-09-09T11:15:14;96079.03;;;18.95;66.54
66479;BME280;53294;47.912;13.526;2022-09-09T11:17:49;96076.16;;;18.88;65.85
66479;BME280;53294;47.912;13.526;2022-09-09T11:20:17;96080.53;;;19.09;65.40
66479;BME280;53294;47.912;13.526;2022-09-09T11:22:54;96081.38;;;19.29;65.10
66479;BME280;53294;47.912;13.526;2022-09-09T11:25:36;96082.13;;;19.10;65.59
66479;BME280;53294;47.912;13.526;2022-09-09T11:42:23;96071.22;;;19.26;66.44
66479;BME280;53294;47.912;13.526;2022-09-09T11:44:51;96062.19;;;19.06;67.01
66479;BME280;53294;47.912;13.526;2022-09-09T11:47:30;96067.72;;;19.09;67.31
66479;BME280;53294;47.912;13.526;2022-09-09T11:50:08;96060.94;;;19.03;67.37
66479;BME280;53294;47.912;13.526;2022-09-09T11:55:26;96065.41;;;19.27;66.99
66479;BME280;53294;47.912;13.526;2022-09-09T12:02:57;96061.03;;;19.23;67.04
66479;BME280;53294;47.912;13.526;2022-09-09T12:05:38;96064.81;;;19.18;67.35
66479;BME280;53294;47.912;13.526;2022-09-09T12:08:10;96067.34;;;19.27;66.60
66479;BME280;53294;47.912;13.526;2022-09-09T12:10:56;96067.06;;;19.32;66.36
66479;BME280;53294;47.912;13.526;2022-09-09T12:13:24;96071.59;;;19.08;67.20
66479;BME280;53294;47.912;13.526;2022-09-09T12:15:56;96079.19;;;19.18;67.24
66479;BME280;53294;47.912;13.526;2022-09-09T12:18:26;96080.50;;;19.25;67.12
66479;BME280;53294;47.912;13.526;2022-09-09T12:21:06;96092.88;;;19.38;66.72
66479;BME280;53294;47.912;13.526;2022-09-09T12:23:52;96078.06;;;19.19;67.22
66479;BME280;53294;47.912;13.526;2022-09-09T12:26:31;96080.38;;;19.17;67.17
66479;BME280;53294;47.912;13.526;2022-09-09T12:31:50;96087.53;;;19.26;67.49
66479;BME280;53294;47.912;13.526;2022-09-09T12:34:42;96094.75;;;19.18;67.52
66479;BME280;53294;47.912;13.526;2022-09-09T12:39:51;96096.84;;;19.25;67.20
66479;BME280;53294;47.912;13.526;2022-09-09T12:42:22;96085.34;;;19.15;67.54
66479;BME280;53294;47.912;13.526;2022-09-09T12:44:59;96091.03;;;19.26;67.24
66479;BME280;53294;47.912;13.526;2022-09-09T12:47:43;96089.53;;;19.45;67.02
66479;BME280;53294;47.912;13.526;2022-09-09T12:50:33;96087.16;;;19.43;66.74
66479;BME280;53294;47.912;13.526;2022-09-09T12:53:08;96087.13;;;19.24;67.11
66479;BME280;53294;47.912;13.526;2022-09-09T12:55:38;96092.09;;;19.22;67.30
66479;BME280;53294;47.912;13.526;2022-09-09T12:58:06;96094.41;;;19.19;67.22
66479;BME280;53294;47.912;13.526;2022-09-09T13:00:34;96089.75;;;19.04;67.40
66479;BME280;53294;47.912;13.526;2022-09-09T13:03:02;96085.66;;;18.94;67.62
66479;BME280;53294;47.912;13.526;2022-09-09T13:05:38;96076.66;;;18.94;67.18
66479;BME280;53294;47.912;13.526;2022-09-09T13:08:07;96080.56;;;18.93;67.44
66479;BME280;53294;47.912;13.526;2022-09-09T13:10:40;96082.75;;;18.87;67.64
66479;BME280;53294;47.912;13.526;2022-09-09T13:13:25;96080.00;;;19.03;67.38
66479;BME280;53294;47.912;13.526;2022-09-09T13:15:56;96085.28;;;18.96;67.41
66479;BME280;53294;47.912;13.526;2022-09-09T13:18:27;96088.25;;;18.91;67.22
66479;BME280;53294;47.912;13.526;2022-09-09T13:20:55;96090.03;;;18.99;67.25
66479;BME280;53294;47.912;13.526;2022-09-09T13:23:28;96087.66;;;18.97;67.13
66479;BME280;53294;47.912;13.526;2022-09-09T13:25:58;96081.75;;;18.95;67.21
66479;BME280;53294;47.912;13.526;2022-09-09T13:28:28;96076.84;;;19.01;66.94
66479;BME280;53294;47.912;13.526;2022-09-09T13:31:00;96076.75;;;19.13;66.51
66479;BME280;53294;47.912;13.526;2022-09-09T13:33:31;96078.69;;;19.13;66.52
66479;BME280;53294;47.912;13.526;2022-09-09T13:36:05;96079.75;;;19.08;66.78
66479;BME280;53294;47.912;13.526;2022-09-09T13:38:36;96085.19;;;19.08;67.00
66479;BME280;53294;47.912;13.526;2022-09-09T13:41:06;96080.47;;;19.05;67.05
66479;BME280;53294;47.912;13.526;2022-09-09T13:43:43;96075.53;;;19.11;66.59
66479;BME280;53294;47.912;13.526;2022-09-09T13:48:56;96065.78;;;18.94;67.20
66479;BME280;53294;47.912;13.526;2022-09-09T13:51:35;96062.81;;;18.99;67.04
66479;BME280;53294;47.912;13.526;2022-09-09T13:54:09;96065.25;;;19.04;67.08
66479;BME280;53294;47.912;13.526;2022-09-09T13:56:37;96072.00;;;19.10;66.59
66479;BME280;53294;47.912;13.526;2022-09-09T13:59:08;96057.53;;;19.06;66.80
66479;BME280;53294;47.912;13.526;2022-09-09T14:01:36;96052.25;;;19.13;66.75
66479;BME280;53294;47.912;13.526;2022-09-09T14:04:03;96058.59;;;19.17;66.79
66479;BME280;53294;47.912;13.526;2022-09-09T14:06:34;96063.22;;;19.33;66.45
66479;BME280;53294;47.912;13.526;2022-09-09T14:09:13;96062.81;;;19.50;65.96
66479;BME280;53294;47.912;13.526;2022-09-09T14:11:42;96056.47;;;19.46;66.13
66479;BME280;53294;47.912;13.526;2022-09-09T14:14:09;96057.19;;;19.43;66.33
66479;BME280;53294;47.912;13.526;2022-09-09T14:16:36;96054.34;;;19.36;66.41
66479;BME280;53294;47.912;13.526;2022-09-09T14:19:03;96056.84;;;19.45;66.30
66479;BME280;53294;47.912;13.526;2022-09-09T14:21:30;96058.34;;;19.42;65.89
66479;BME280;53294;47.912;13.526;2022-09-09T14:23:57;96051.63;;;19.55;65.41
66479;BME280;53294;47.912;13.526;2022-09-09T14:26:24;96058.50;;;19.49;65.86
66479;BME280;53294;47.912;13.526;2022-09-09T14:28:52;96057.88;;;19.56;65.64
66479;BME280;53294;47.912;13.526;2022-09-09T14:31:22;96053.75;;;19.46;66.23
66479;BME280;53294;47.912;13.526;2022-09-09T14:33:49;96050.31;;;19.49;66.10
66479;BME280;53294;47.912;13.526;2022-09-09T14:36:17;96052.63;;;19.47;66.27
66479;BME280;53294;47.912;13.526;2022-09-09T14:38:44;96043.88;;;19.58;65.97
66479;BME280;53294;47.912;13.526;2022-09-09T14:41:12;96039.31;;;19.62;65.90
66479;BME280;53294;47.912;13.526;2022-09-09T14:43:39;96040.59;;;19.48;66.36
66479;BME280;53294;47.912;13.526;2022-09-09T14:46:15;96045.47;;;19.39;66.52
66479;BME280;53294;47.912;13.526;2022-09-09T14:48:42;96051.97;;;19.18;66.83
66479;BME280;53294;47.912;13.526;2022-09-09T14:53:37;96044.72;;;18.75;67.95
66479;BME280;53294;47.912;13.526;2022-09-09T14:56:15;96051.75;;;18.92;67.60
66479;BME280;53294;47.912;13.526;2022-09-09T14:58:42;96049.47;;;19.10;66.98
66479;BME280;53294;47.912;13.526;2022-09-09T15:01:15;96050.84;;;19.19;66.89
66479;BME280;53294;47.912;13.526;2022-09-09T15:03:48;96043.63;;;19.27;66.64
66479;BME280;53294;47.912;13.526;2022-09-09T15:06:14;96040.44;;;19.41;65.83
66479;BME280;53294;47.912;13.526;2022-09-09T15:08:43;96043.56;;;19.43;65.99
66479;BME280;53294;47.912;13.526;2022-09-09T15:11:12;96031.13;;;19.42;66.14